sensor_id;sensor_type;location;lat;lon;timestamp;temperature;humidity
61255;DHT22;47128;47.530;8.584;2022-08-21T00:01:16;18.20;99.90
61255;DHT22;47128;47.530;8.584;2022-08-21T00:03:43;18.10;99.90
61255;DHT22;47128;47.530;8.584;2022-08-21T00:06:09;18.10;99.90
61255;DHT22;47128;47.530;8.584;2022-08-21T00:08:34;17.90;99.90
61255;DHT22;47128;47.530;8.584;2022-08-21T00:11:00;17.90;99.90
61255;DHT22;47128;47.530;8.584;2022-08-21T00:13:26;17.90;99.90
61255;DHT22;47128;47.530;8.584;2022-08-21T00:15:51;17.90;99.90
61255;DHT22;47128;47.530;8.584;2022-08-21T00:18:18;18.00;99.90
61255;DHT22;47128;47.530;8.584;2022-08-21T00:20:44;18.00;99.90
61255;DHT22;47128;47.530;8.584;2022-08-21T00:23:10;18.00;99.90
61255;DHT22;47128;47.530;8.584;2022-08-21T00:25:37;18.00;99.90
61255;DHT22;47128;47.530;8.584;2022-08-21T00:28:05;17.90;99.90
61255;DHT22;47128;47.530;8.584;2022-08-21T00:30:32;17.90;99.90
61255;DHT22;47128;47.530;8.584;2022-08-21T00:32:58;17.90;99.90
61255;DHT22;47128;47.530;8.584;2022-08-21T00:35:34;18.00;99.90
61255;DHT22;47128;47.530;8.584;2022-08-21T00:38:01;18.00;99.90
61255;DHT22;47128;47.530;8.584;2022-08-21T00:40:33;18.00;99.90
61255;DHT22;47128;47.530;8.584;2022-08-21T00:43:01;18.00;99.90
61255;DHT22;47128;47.530;8.584;2022-08-21T00:45:27;18.10;99.90
61255;DHT22;47128;47.530;8.584;2022-08-21T00:47:53;18.00;99.90
61255;DHT22;47128;47.530;8.584;2022-08-21T00:50:20;18.00;99.90
61255;DHT22;47128;47.530;8.584;2022-08-21T00:52:46;18.00;99.90
61255;DHT22;47128;47.530;8.584;2022-08-21T00:55:13;18.10;99.90
61255;DHT22;47128;47.530;8.584;2022-08-21T00:57:44;18.10;99.90
61255;DHT22;47128;47.530;8.584;2022-08-21T01:00:14;18.00;99.90
61255;DHT22;47128;47.530;8.584;2022-08-21T01:02:40;18.10;99.90
61255;DHT22;47128;47.530;8.584;2022-08-21T01:05:06;18.00;99.90
61255;DHT22;47128;47.530;8.584;2022-08-21T01:07:32;17.90;99.90
61255;DHT22;47128;47.530;8.584;2022-08-21T01:09:58;17.90;99.90
61255;DHT22;47128;47.530;8.584;2022-08-21T01:12:24;17.90;99.90
61255;DHT22;47128;47.530;8.584;2022-08-21T01:14:50;17.90;99.90
61255;DHT22;47128;47.530;8.584;2022-08-21T01:17:17;17.90;99.90
61255;DHT22;47128;47.530;8.584;2022-08-21T01:19:43;17.90;99.90
61255;DHT22;47128;47.530;8.584;2022-08-21T01:22:09;17.80;99.90
61255;DHT22;47128;47.530;8.584;2022-08-21T01:24:35;17.90;99.90
61255;DHT22;47128;47.530;8.584;2022-08-21T01:27:01;17.80;99.90
61255;DHT22;47128;47.530;8.584;2022-08-21T01:29:53;17.70;99.90
61255;DHT22;47128;47.530;8.584;2022-08-21T01:32:20;17.80;99.90
61255;DHT22;47128;47.530;8.584;2022-08-21T01:34:48;17.80;99.90
61255;DHT22;47128;47.530;8.584;2022-08-21T01:37:14;17.80;99.90
61255;DHT22;47128;47.530;8.584;2022-08-21T01:39:41;17.80;99.90
61255;DHT22;47128;47.530;8.584;2022-08-21T01:42:07;17.90;99.90
61255;DHT22;47128;47.530;8.584;2022-08-21T01:44:33;17.80;99.90
61255;DHT22;47128;47.530;8.584;2022-08-21T01:47:01;17.90;99.90
61255;DHT22;47128;47.530;8.584;2022-08-21T01:49:28;17.90;99.90
61255;DHT22;47128;47.530;8.584;2022-08-21T01:51:53;17.80;99.90
61255;DHT22;47128;47.530;8.584;2022-08-21T01:54:19;17.80;99.90
61255;DHT22;47128;47.530;8.584;2022-08-21T01:56:47;17.70;99.90
61255;DHT22;47128;47.530;8.584;2022-08-21T01:59:14;17.70;99.90
61255;DHT22;47128;47.530;8.584;2022-08-21T02:01:40;17.70;99.90
61255;DHT22;47128;47.530;8.584;2022-08-21T02:04:07;17.70;99.90
61255;DHT22;47128;47.530;8.584;2022-08-21T02:06:32;17.60;99.90
61255;DHT22;47128;47.530;8.584;2022-08-21T02:08:58;17.60;99.90
61255;DHT22;47128;47.530;8.584;2022-08-21T02:11:24;17.60;99.90
61255;DHT22;47128;47.530;8.584;2022-08-21T02:13:49;17.60;99.90
61255;DHT22;47128;47.530;8.584;2022-08-21T02:16:16;17.60;99.90
61255;DHT22;47128;47.530;8.584;2022-08-21T02:18:42;17.60;99.90
61255;DHT22;47128;47.530;8.584;2022-08-21T02:21:08;17.50;99.90
61255;DHT22;47128;47.530;8.584;2022-08-21T02:23:34;17.50;99.90
61255;DHT22;47128;47.530;8.584;2022-08-21T02:26:02;17.50;99.90
61255;DHT22;47128;47.530;8.584;2022-08-21T02:28:28;17.50;99.90
61255;DHT22;47128;47.530;8.584;2022-08-21T02:30:55;17.50;99.90
61255;DHT22;47128;47.530;8.584;2022-08-21T02:33:21;17.50;99.90
61255;DHT22;47128;47.530;8.584;2022-08-21T02:35:48;17.50;99.90
61255;DHT22;47128;47.530;8.584;2022-08-21T02:38:16;17.40;99.90
61255;DHT22;47128;47.530;8.584;2022-08-21T02:40:45;17.30;99.90
61255;DHT22;47128;47.530;8.584;2022-08-21T02:43:11;17.40;99.90
61255;DHT22;47128;47.530;8.584;2022-08-21T02:45:38;17.40;99.90
61255;DHT22;47128;47.530;8.584;2022-08-21T02:48:07;17.40;99.90
61255;DHT22;47128;47.530;8.584;2022-08-21T02:50:38;17.40;99.90
61255;DHT22;47128;47.530;8.584;2022-08-21T02:53:06;17.40;99.90
61255;DHT22;47128;47.530;8.584;2022-08-21T02:55:33;17.40;99.90
61255;DHT22;47128;47.530;8.584;2022-08-21T02:58:00;17.30;99.90
61255;DHT22;47128;47.530;8.584;2022-08-21T03:00:28;17.30;99.90
61255;DHT22;47128;47.530;8.584;2022-08-21T03:02:56;17.30;99.90
61255;DHT22;47128;47.530;8.584;2022-08-21T03:05:23;17.30;99.90
61255;DHT22;47128;47.530;8.584;2022-08-21T03:07:48;17.30;99.90
61255;DHT22;47128;47.530;8.584;2022-08-21T03:10:15;17.30;99.90
61255;DHT22;47128;47.530;8.584;2022-08-21T03:12:41;17.30;99.90
61255;DHT22;47128;47.530;8.584;2022-08-21T03:15:13;17.30;99.90
61255;DHT22;47128;47.530;8.584;2022-08-21T03:17:39;17.20;99.90
61255;DHT22;47128;47.530;8.584;2022-08-21T03:20:07;17.30;99.90
61255;DHT22;47128;47.530;8.584;2022-08-21T03:22:33;17.30;99.90
61255;DHT22;47128;47.530;8.584;2022-08-21T03:24:59;17.30;99.90
61255;DHT22;47128;47.530;8.584;2022-08-21T03:27:25;17.40;99.90
61255;DHT22;47128;47.530;8.584;2022-08-21T03:29:52;17.30;99.90
61255;DHT22;47128;47.530;8.584;2022-08-21T03:32:18;17.40;99.90
61255;DHT22;47128;47.530;8.584;2022-08-21T03:34:45;17.40;99.90
61255;DHT22;47128;47.530;8.584;2022-08-21T03:37:12;17.40;99.90
61255;DHT22;47128;47.530;8.584;2022-08-21T03:39:37;17.40;99.90
61255;DHT22;47128;47.530;8.584;2022-08-21T03:42:03;17.40;99.90
61255;DHT22;47128;47.530;8.584;2022-08-21T03:44:30;17.50;99.90
61255;DHT22;47128;47.530;8.584;2022-08-21T03:46:59;17.50;99.90
61255;DHT22;47128;47.530;8.584;2022-08-21T03:49:26;17.50;99.90
61255;DHT22;47128;47.530;8.584;2022-08-21T03:51:52;17.50;99.90
61255;DHT22;47128;47.530;8.584;2022-08-21T03:54:18;17.50;99.90
61255;DHT22;47128;47.530;8.584;2022-08-21T03:56:44;17.50;99.90
61255;DHT22;47128;47.530;8.584;2022-08-21T03:59:10;17.50;99.90
61255;DHT22;47128;47.530;8.584;2022-08-21T04:01:35;17.50;99.90
61255;DHT22;47128;47.530;8.584;2022-08-21T04:04:02;17.40;99.90
61255;DHT22;47128;47.530;8.584;2022-08-21T04:06:28;17.40;99.90
61255;DHT22;47128;47.530;8.584;2022-08-21T04:08:54;17.40;99.90
61255;DHT22;47128;47.530;8.584;2022-08-21T04:11:20;17.40;99.90
61255;DHT22;47128;47.530;8.584;2022-08-21T04:13:46;17.30;99.90
61255;DHT22;47128;47.530;8.584;2022-08-21T04:16:13;17.30;99.90
61255;DHT22;47128;47.530;8.584;2022-08-21T04:18:39;17.30;99.90
61255;DHT22;47128;47.530;8.584;2022-08-21T04:21:07;17.20;99.90
61255;DHT22;47128;47.530;8.584;2022-08-21T04:23:35;17.20;99.90
61255;DHT22;47128;47.530;8.584;2022-08-21T04:26:02;17.20;99.90
61255;DHT22;47128;47.530;8.584;2022-08-21T04:28:28;17.20;99.90
61255;DHT22;47128;47.530;8.584;2022-08-21T04:30:54;17.20;99.90
61255;DHT22;47128;47.530;8.584;2022-08-21T04:33:21;17.10;99.90
61255;DHT22;47128;47.530;8.584;2022-08-21T04:35:48;17.10;99.90
61255;DHT22;47128;47.530;8.584;2022-08-21T04:38:14;17.10;99.90
61255;DHT22;47128;47.530;8.584;2022-08-21T04:40:39;17.20;99.90
61255;DHT22;47128;47.530;8.584;2022-08-21T04:43:07;17.10;99.90
61255;DHT22;47128;47.530;8.584;2022-08-21T04:45:43;17.10;99.90
61255;DHT22;47128;47.530;8.584;2022-08-21T04:48:11;17.10;99.90
61255;DHT22;47128;47.530;8.584;2022-08-21T04:53:20;17.10;99.90
61255;DHT22;47128;47.530;8.584;2022-08-21T04:55:46;17.00;99.90
61255;DHT22;47128;47.530;8.584;2022-08-21T04:58:15;17.10;99.90
61255;DHT22;47128;47.530;8.584;2022-08-21T05:00:43;17.10;99.90
61255;DHT22;47128;47.530;8.584;2022-08-21T05:03:09;17.10;99.90
61255;DHT22;47128;47.530;8.584;2022-08-21T05:05:36;17.00;99.90
61255;DHT22;47128;47.530;8.584;2022-08-21T05:08:03;16.90;99.90
61255;DHT22;47128;47.530;8.584;2022-08-21T05:10:29;17.00;99.90
61255;DHT22;47128;47.530;8.584;2022-08-21T05:12:57;17.00;99.90
61255;DHT22;47128;47.530;8.584;2022-08-21T05:15:23;17.10;99.90
61255;DHT22;47128;47.530;8.584;2022-08-21T05:17:49;17.10;99.90
61255;DHT22;47128;47.530;8.584;2022-08-21T05:20:16;17.10;99.90
61255;DHT22;47128;47.530;8.584;2022-08-21T05:22:41;17.00;99.90
61255;DHT22;47128;47.530;8.584;2022-08-21T05:25:08;17.00;99.90
61255;DHT22;47128;47.530;8.584;2022-08-21T05:27:34;17.10;99.90
61255;DHT22;47128;47.530;8.584;2022-08-21T05:29:59;17.10;99.90
61255;DHT22;47128;47.530;8.584;2022-08-21T05:32:25;17.10;99.90
61255;DHT22;47128;47.530;8.584;2022-08-21T05:34:53;17.20;99.90
61255;DHT22;47128;47.530;8.584;2022-08-21T05:37:19;17.10;99.90
61255;DHT22;47128;47.530;8.584;2022-08-21T05:39:44;17.20;99.90
61255;DHT22;47128;47.530;8.584;2022-08-21T05:42:10;17.30;99.90
61255;DHT22;47128;47.530;8.584;2022-08-21T05:44:36;17.30;99.90
61255;DHT22;47128;47.530;8.584;2022-08-21T05:47:07;17.30;99.90
61255;DHT22;47128;47.530;8.584;2022-08-21T05:49:34;17.20;99.90
61255;DHT22;47128;47.530;8.584;2022-08-21T05:52:00;17.30;99.90
61255;DHT22;47128;47.530;8.584;2022-08-21T05:54:26;17.40;99.90
61255;DHT22;47128;47.530;8.584;2022-08-21T05:56:52;17.50;99.90
61255;DHT22;47128;47.530;8.584;2022-08-21T05:59:18;17.60;99.90
61255;DHT22;47128;47.530;8.584;2022-08-21T06:01:44;17.70;99.90
61255;DHT22;47128;47.530;8.584;2022-08-21T06:04:11;17.60;99.90
61255;DHT22;47128;47.530;8.584;2022-08-21T06:06:37;17.60;99.90
61255;DHT22;47128;47.530;8.584;2022-08-21T06:09:03;17.70;99.90
61255;DHT22;47128;47.530;8.584;2022-08-21T06:11:29;17.60;99.90
61255;DHT22;47128;47.530;8.584;2022-08-21T06:13:56;17.70;99.90
61255;DHT22;47128;47.530;8.584;2022-08-21T06:16:22;17.80;99.90
61255;DHT22;47128;47.530;8.584;2022-08-21T06:18:48;17.80;99.90
61255;DHT22;47128;47.530;8.584;2022-08-21T06:21:14;17.60;99.90
61255;DHT22;47128;47.530;8.584;2022-08-21T06:23:40;17.70;99.90
61255;DHT22;47128;47.530;8.584;2022-08-21T06:26:07;17.80;99.90
61255;DHT22;47128;47.530;8.584;2022-08-21T06:28:35;17.90;99.90
61255;DHT22;47128;47.530;8.584;2022-08-21T06:31:19;18.00;99.90
61255;DHT22;47128;47.530;8.584;2022-08-21T06:33:46;18.30;99.90
61255;DHT22;47128;47.530;8.584;2022-08-21T06:36:11;18.30;99.90
61255;DHT22;47128;47.530;8.584;2022-08-21T06:38:38;18.30;99.90
61255;DHT22;47128;47.530;8.584;2022-08-21T06:41:04;18.30;99.90
61255;DHT22;47128;47.530;8.584;2022-08-21T06:43:30;18.30;99.90
61255;DHT22;47128;47.530;8.584;2022-08-21T06:45:56;18.40;99.90
61255;DHT22;47128;47.530;8.584;2022-08-21T06:48:22;18.30;99.90
61255;DHT22;47128;47.530;8.584;2022-08-21T06:50:48;18.40;99.90
61255;DHT22;47128;47.530;8.584;2022-08-21T06:53:15;18.40;99.90
61255;DHT22;47128;47.530;8.584;2022-08-21T06:55:41;18.50;99.90
61255;DHT22;47128;47.530;8.584;2022-08-21T06:58:08;18.50;99.90
61255;DHT22;47128;47.530;8.584;2022-08-21T07:00:36;18.50;99.90
61255;DHT22;47128;47.530;8.584;2022-08-21T07:03:03;18.40;99.90
61255;DHT22;47128;47.530;8.584;2022-08-21T07:05:29;18.50;99.90
61255;DHT22;47128;47.530;8.584;2022-08-21T07:07:55;18.40;99.90
61255;DHT22;47128;47.530;8.584;2022-08-21T07:10:23;18.50;99.90
61255;DHT22;47128;47.530;8.584;2022-08-21T07:12:52;18.50;99.90
61255;DHT22;47128;47.530;8.584;2022-08-21T07:15:20;18.50;99.90
61255;DHT22;47128;47.530;8.584;2022-08-21T07:17:45;18.40;99.90
61255;DHT22;47128;47.530;8.584;2022-08-21T07:20:11;18.30;99.90
61255;DHT22;47128;47.530;8.584;2022-08-21T07:22:37;18.30;99.90
61255;DHT22;47128;47.530;8.584;2022-08-21T07:25:05;18.30;99.90
61255;DHT22;47128;47.530;8.584;2022-08-21T07:27:31;18.20;99.90
61255;DHT22;47128;47.530;8.584;2022-08-21T07:29:57;18.20;99.90
61255;DHT22;47128;47.530;8.584;2022-08-21T07:32:23;18.20;99.90
61255;DHT22;47128;47.530;8.584;2022-08-21T07:34:48;18.30;99.90
61255;DHT22;47128;47.530;8.584;2022-08-21T07:37:14;18.40;99.90
61255;DHT22;47128;47.530;8.584;2022-08-21T07:39:40;18.40;99.90
61255;DHT22;47128;47.530;8.584;2022-08-21T07:42:06;18.50;99.90
61255;DHT22;47128;47.530;8.584;2022-08-21T07:44:32;18.50;99.90
61255;DHT22;47128;47.530;8.584;2022-08-21T07:47:01;18.60;99.90
61255;DHT22;47128;47.530;8.584;2022-08-21T07:49:27;18.50;99.90
61255;DHT22;47128;47.530;8.584;2022-08-21T07:51:53;18.50;99.90
61255;DHT22;47128;47.530;8.584;2022-08-21T07:54:19;18.60;99.90
61255;DHT22;47128;47.530;8.584;2022-08-21T07:56:44;18.70;99.90
61255;DHT22;47128;47.530;8.584;2022-08-21T07:59:11;18.90;99.90
61255;DHT22;47128;47.530;8.584;2022-08-21T08:01:36;19.00;99.90
61255;DHT22;47128;47.530;8.584;2022-08-21T08:04:02;19.10;99.90
61255;DHT22;47128;47.530;8.584;2022-08-21T08:06:28;19.20;99.90
61255;DHT22;47128;47.530;8.584;2022-08-21T08:08:54;19.40;99.90
61255;DHT22;47128;47.530;8.584;2022-08-21T08:11:20;19.50;99.90
61255;DHT22;47128;47.530;8.584;2022-08-21T08:13:51;19.60;99.90
61255;DHT22;47128;47.530;8.584;2022-08-21T08:16:17;19.70;99.90
61255;DHT22;47128;47.530;8.584;2022-08-21T08:18:43;19.70;99.90
61255;DHT22;47128;47.530;8.584;2022-08-21T08:21:13;19.70;99.90
61255;DHT22;47128;47.530;8.584;2022-08-21T08:23:40;19.70;99.90
61255;DHT22;47128;47.530;8.584;2022-08-21T08:28:33;20.10;99.90
61255;DHT22;47128;47.530;8.584;2022-08-21T08:31:00;20.20;99.90
61255;DHT22;47128;47.530;8.584;2022-08-21T08:33:27;20.20;99.90
61255;DHT22;47128;47.530;8.584;2022-08-21T08:35:53;20.30;99.90
61255;DHT22;47128;47.530;8.584;2022-08-21T08:38:20;20.50;99.90
61255;DHT22;47128;47.530;8.584;2022-08-21T08:41:01;20.80;99.90
61255;DHT22;47128;47.530;8.584;2022-08-21T08:43:32;21.00;99.90
61255;DHT22;47128;47.530;8.584;2022-08-21T08:46:03;21.30;99.90
61255;DHT22;47128;47.530;8.584;2022-08-21T08:48:51;21.30;99.90
61255;DHT22;47128;47.530;8.584;2022-08-21T08:51:28;21.30;99.90
61255;DHT22;47128;47.530;8.584;2022-08-21T08:53:59;21.40;99.90
61255;DHT22;47128;47.530;8.584;2022-08-21T08:56:33;21.40;99.90
61255;DHT22;47128;47.530;8.584;2022-08-21T08:59:08;21.30;99.90
61255;DHT22;47128;47.530;8.584;2022-08-21T09:01:35;21.30;99.90
61255;DHT22;47128;47.530;8.584;2022-08-21T09:04:00;21.30;99.90
61255;DHT22;47128;47.530;8.584;2022-08-21T09:07:09;21.40;99.90
61255;DHT22;47128;47.530;8.584;2022-08-21T09:10:02;21.70;99.90
61255;DHT22;47128;47.530;8.584;2022-08-21T09:21:11;22.70;99.90
61255;DHT22;47128;47.530;8.584;2022-08-21T09:26:23;22.90;99.90
61255;DHT22;47128;47.530;8.584;2022-08-21T09:28:54;23.10;99.70
61255;DHT22;47128;47.530;8.584;2022-08-21T09:31:38;23.30;99.50
61255;DHT22;47128;47.530;8.584;2022-08-21T09:34:04;23.30;98.20
61255;DHT22;47128;47.530;8.584;2022-08-21T09:39:03;23.30;98.80
61255;DHT22;47128;47.530;8.584;2022-08-21T09:49:30;23.90;97.60
61255;DHT22;47128;47.530;8.584;2022-08-21T09:51:56;23.90;97.60
61255;DHT22;47128;47.530;8.584;2022-08-21T09:54:31;24.00;97.40
61255;DHT22;47128;47.530;8.584;2022-08-21T09:57:27;23.90;97.50
61255;DHT22;47128;47.530;8.584;2022-08-21T10:00:27;23.90;97.00
61255;DHT22;47128;47.530;8.584;2022-08-21T10:03:11;24.10;97.60
61255;DHT22;47128;47.530;8.584;2022-08-21T10:05:38;24.30;96.90
61255;DHT22;47128;47.530;8.584;2022-08-21T10:08:04;24.30;96.70
61255;DHT22;47128;47.530;8.584;2022-08-21T10:10:36;24.10;96.50
61255;DHT22;47128;47.530;8.584;2022-08-21T10:13:17;24.10;96.60
61255;DHT22;47128;47.530;8.584;2022-08-21T10:18:35;24.70;95.40
61255;DHT22;47128;47.530;8.584;2022-08-21T10:21:23;24.90;95.10
61255;DHT22;47128;47.530;8.584;2022-08-21T10:43:04;26.10;92.10
61255;DHT22;47128;47.530;8.584;2022-08-21T10:51:15;27.40;87.30
61255;DHT22;47128;47.530;8.584;2022-08-21T10:53:50;27.60;87.60
61255;DHT22;47128;47.530;8.584;2022-08-21T10:56:25;27.40;86.80
61255;DHT22;47128;47.530;8.584;2022-08-21T11:04:20;26.50;87.80
61255;DHT22;47128;47.530;8.584;2022-08-21T11:06:50;26.30;87.20
61255;DHT22;47128;47.530;8.584;2022-08-21T11:09:20;26.40;86.90
61255;DHT22;47128;47.530;8.584;2022-08-21T11:17:16;26.50;86.00
61255;DHT22;47128;47.530;8.584;2022-08-21T11:23:03;27.00;81.90
61255;DHT22;47128;47.530;8.584;2022-08-21T11:25:37;27.50;78.60
61255;DHT22;47128;47.530;8.584;2022-08-21T11:34:01;27.20;80.50
61255;DHT22;47128;47.530;8.584;2022-08-21T11:39:22;27.30;80.80
61255;DHT22;47128;47.530;8.584;2022-08-21T11:44:56;26.90;80.80
61255;DHT22;47128;47.530;8.584;2022-08-21T11:50:17;27.10;79.80
61255;DHT22;47128;47.530;8.584;2022-08-21T11:52:52;27.10;80.60
61255;DHT22;47128;47.530;8.584;2022-08-21T11:55:23;27.00;81.80
61255;DHT22;47128;47.530;8.584;2022-08-21T11:58:10;27.20;79.60
61255;DHT22;47128;47.530;8.584;2022-08-21T12:00:49;27.20;80.20
61255;DHT22;47128;47.530;8.584;2022-08-21T12:03:28;27.50;76.60
61255;DHT22;47128;47.530;8.584;2022-08-21T12:06:01;27.40;78.70
61255;DHT22;47128;47.530;8.584;2022-08-21T12:08:34;27.60;77.70
61255;DHT22;47128;47.530;8.584;2022-08-21T12:16:45;28.40;74.70
61255;DHT22;47128;47.530;8.584;2022-08-21T12:26:57;28.90;71.50
61255;DHT22;47128;47.530;8.584;2022-08-21T12:29:29;28.90;68.70
61255;DHT22;47128;47.530;8.584;2022-08-21T12:31:58;28.50;69.50
61255;DHT22;47128;47.530;8.584;2022-08-21T12:34:34;28.50;71.70
61255;DHT22;47128;47.530;8.584;2022-08-21T12:37:04;28.60;72.50
61255;DHT22;47128;47.530;8.584;2022-08-21T12:39:34;28.60;70.80
61255;DHT22;47128;47.530;8.584;2022-08-21T12:47:43;28.40;69.60
61255;DHT22;47128;47.530;8.584;2022-08-21T12:50:26;28.50;70.60
61255;DHT22;47128;47.530;8.584;2022-08-21T12:53:15;28.50;71.20
61255;DHT22;47128;47.530;8.584;2022-08-21T12:55:45;28.50;69.90
61255;DHT22;47128;47.530;8.584;2022-08-21T12:58:22;28.60;69.60
61255;DHT22;47128;47.530;8.584;2022-08-21T13:00:54;28.50;69.40
61255;DHT22;47128;47.530;8.584;2022-08-21T13:03:22;28.60;69.00
61255;DHT22;47128;47.530;8.584;2022-08-21T13:05:48;28.60;68.20
61255;DHT22;47128;47.530;8.584;2022-08-21T13:08:18;28.70;68.30
61255;DHT22;47128;47.530;8.584;2022-08-21T13:10:48;28.80;67.50
61255;DHT22;47128;47.530;8.584;2022-08-21T13:13:24;29.00;66.90
61255;DHT22;47128;47.530;8.584;2022-08-21T13:15:49;29.20;66.40
61255;DHT22;47128;47.530;8.584;2022-08-21T13:18:23;29.10;63.70
61255;DHT22;47128;47.530;8.584;2022-08-21T13:20:49;29.00;64.50
61255;DHT22;47128;47.530;8.584;2022-08-21T13:23:26;28.80;65.00
61255;DHT22;47128;47.530;8.584;2022-08-21T13:25:52;28.90;65.40
61255;DHT22;47128;47.530;8.584;2022-08-21T13:28:18;28.90;62.20
61255;DHT22;47128;47.530;8.584;2022-08-21T13:30:54;28.90;61.30
61255;DHT22;47128;47.530;8.584;2022-08-21T13:33:23;28.80;61.80
61255;DHT22;47128;47.530;8.584;2022-08-21T13:38:26;28.80;62.50
61255;DHT22;47128;47.530;8.584;2022-08-21T13:41:04;28.80;63.50
61255;DHT22;47128;47.530;8.584;2022-08-21T13:43:35;28.80;62.40
61255;DHT22;47128;47.530;8.584;2022-08-21T13:46:02;28.70;61.60
61255;DHT22;47128;47.530;8.584;2022-08-21T13:48:33;28.50;60.50
61255;DHT22;47128;47.530;8.584;2022-08-21T13:51:00;28.60;61.20
61255;DHT22;47128;47.530;8.584;2022-08-21T13:53:32;28.60;60.20
61255;DHT22;47128;47.530;8.584;2022-08-21T13:56:00;28.60;60.80
61255;DHT22;47128;47.530;8.584;2022-08-21T13:58:29;28.70;60.80
61255;DHT22;47128;47.530;8.584;2022-08-21T14:00:56;28.80;59.20
61255;DHT22;47128;47.530;8.584;2022-08-21T14:03:35;28.90;59.50
61255;DHT22;47128;47.530;8.584;2022-08-21T14:06:20;29.00;59.90
61255;DHT22;47128;47.530;8.584;2022-08-21T14:08:50;29.10;59.10
61255;DHT22;47128;47.530;8.584;2022-08-21T14:11:16;29.00;58.80
61255;DHT22;47128;47.530;8.584;2022-08-21T14:13:46;29.20;58.10
61255;DHT22;47128;47.530;8.584;2022-08-21T14:16:26;29.20;58.10
61255;DHT22;47128;47.530;8.584;2022-08-21T14:21:39;28.70;59.80
61255;DHT22;47128;47.530;8.584;2022-08-21T14:26:46;28.90;59.10
61255;DHT22;47128;47.530;8.584;2022-08-21T14:29:16;28.90;58.30
61255;DHT22;47128;47.530;8.584;2022-08-21T14:31:42;29.00;58.00
61255;DHT22;47128;47.530;8.584;2022-08-21T14:34:10;29.00;57.40
61255;DHT22;47128;47.530;8.584;2022-08-21T14:36:37;28.70;57.50
61255;DHT22;47128;47.530;8.584;2022-08-21T14:39:02;28.70;57.50
61255;DHT22;47128;47.530;8.584;2022-08-21T14:41:28;28.80;56.80
61255;DHT22;47128;47.530;8.584;2022-08-21T14:43:55;28.60;58.40
61255;DHT22;47128;47.530;8.584;2022-08-21T14:46:25;28.60;58.50
61255;DHT22;47128;47.530;8.584;2022-08-21T14:48:52;28.70;56.30
61255;DHT22;47128;47.530;8.584;2022-08-21T14:51:18;28.80;55.80
61255;DHT22;47128;47.530;8.584;2022-08-21T14:53:43;28.90;55.80
61255;DHT22;47128;47.530;8.584;2022-08-21T14:56:10;29.00;55.40
61255;DHT22;47128;47.530;8.584;2022-08-21T14:58:46;28.90;55.60
61255;DHT22;47128;47.530;8.584;2022-08-21T15:01:15;28.70;56.20
61255;DHT22;47128;47.530;8.584;2022-08-21T15:03:41;28.70;55.50
61255;DHT22;47128;47.530;8.584;2022-08-21T15:06:08;28.60;54.70
61255;DHT22;47128;47.530;8.584;2022-08-21T15:08:33;28.50;54.60
61255;DHT22;47128;47.530;8.584;2022-08-21T15:11:00;28.70;53.80
61255;DHT22;47128;47.530;8.584;2022-08-21T15:13:26;29.00;56.60
61255;DHT22;47128;47.530;8.584;2022-08-21T15:15:52;28.80;55.10
61255;DHT22;47128;47.530;8.584;2022-08-21T15:18:24;28.90;54.30
61255;DHT22;47128;47.530;8.584;2022-08-21T15:20:50;29.00;54.20
61255;DHT22;47128;47.530;8.584;2022-08-21T15:23:16;29.20;55.20
61255;DHT22;47128;47.530;8.584;2022-08-21T15:25:43;29.30;56.00
61255;DHT22;47128;47.530;8.584;2022-08-21T15:28:10;29.10;55.80
61255;DHT22;47128;47.530;8.584;2022-08-21T15:30:37;29.00;55.20
61255;DHT22;47128;47.530;8.584;2022-08-21T15:33:04;29.00;55.00
61255;DHT22;47128;47.530;8.584;2022-08-21T15:35:30;28.90;56.50
61255;DHT22;47128;47.530;8.584;2022-08-21T15:37:56;28.90;56.60
61255;DHT22;47128;47.530;8.584;2022-08-21T15:40:22;29.00;56.10
61255;DHT22;47128;47.530;8.584;2022-08-21T15:42:48;29.00;56.60
61255;DHT22;47128;47.530;8.584;2022-08-21T15:45:14;28.80;58.20
61255;DHT22;47128;47.530;8.584;2022-08-21T15:47:43;28.50;54.80
61255;DHT22;47128;47.530;8.584;2022-08-21T15:50:10;28.30;56.30
61255;DHT22;47128;47.530;8.584;2022-08-21T15:52:36;28.30;58.80
61255;DHT22;47128;47.530;8.584;2022-08-21T15:55:03;28.00;57.90
61255;DHT22;47128;47.530;8.584;2022-08-21T15:57:29;27.70;58.90
61255;DHT22;47128;47.530;8.584;2022-08-21T15:59:58;27.60;59.60
61255;DHT22;47128;47.530;8.584;2022-08-21T16:02:31;27.40;57.00
61255;DHT22;47128;47.530;8.584;2022-08-21T16:04:57;27.40;59.80
61255;DHT22;47128;47.530;8.584;2022-08-21T16:07:23;27.30;59.40
61255;DHT22;47128;47.530;8.584;2022-08-21T16:09:49;27.40;58.10
61255;DHT22;47128;47.530;8.584;2022-08-21T16:12:22;27.40;60.00
61255;DHT22;47128;47.530;8.584;2022-08-21T16:14:51;27.30;61.10
61255;DHT22;47128;47.530;8.584;2022-08-21T16:17:17;27.10;60.30
61255;DHT22;47128;47.530;8.584;2022-08-21T16:19:43;26.90;58.90
61255;DHT22;47128;47.530;8.584;2022-08-21T16:22:09;26.90;60.70
61255;DHT22;47128;47.530;8.584;2022-08-21T16:24:35;26.80;60.80
61255;DHT22;47128;47.530;8.584;2022-08-21T16:27:01;26.60;60.30
61255;DHT22;47128;47.530;8.584;2022-08-21T16:29:30;26.80;57.80
61255;DHT22;47128;47.530;8.584;2022-08-21T16:31:57;26.70;58.70
61255;DHT22;47128;47.530;8.584;2022-08-21T16:34:23;26.60;59.30
61255;DHT22;47128;47.530;8.584;2022-08-21T16:36:49;26.50;58.90
61255;DHT22;47128;47.530;8.584;2022-08-21T16:39:15;26.40;58.30
61255;DHT22;47128;47.530;8.584;2022-08-21T16:41:41;26.50;61.00
61255;DHT22;47128;47.530;8.584;2022-08-21T16:44:07;26.30;59.50
61255;DHT22;47128;47.530;8.584;2022-08-21T16:46:35;26.20;60.10
61255;DHT22;47128;47.530;8.584;2022-08-21T16:49:01;26.10;62.20
61255;DHT22;47128;47.530;8.584;2022-08-21T16:51:27;26.00;62.00
61255;DHT22;47128;47.530;8.584;2022-08-21T16:53:57;25.90;62.00
61255;DHT22;47128;47.530;8.584;2022-08-21T16:56:23;25.80;61.50
61255;DHT22;47128;47.530;8.584;2022-08-21T16:58:49;25.80;62.20
61255;DHT22;47128;47.530;8.584;2022-08-21T17:01:19;25.60;60.80
61255;DHT22;47128;47.530;8.584;2022-08-21T17:03:48;25.40;62.70
61255;DHT22;47128;47.530;8.584;2022-08-21T17:06:16;25.20;63.40
61255;DHT22;47128;47.530;8.584;2022-08-21T17:08:42;25.00;65.00
61255;DHT22;47128;47.530;8.584;2022-08-21T17:11:27;24.80;66.80
61255;DHT22;47128;47.530;8.584;2022-08-21T17:13:55;24.70;69.20
61255;DHT22;47128;47.530;8.584;2022-08-21T17:16:21;24.40;69.80
61255;DHT22;47128;47.530;8.584;2022-08-21T17:18:47;24.10;71.90
61255;DHT22;47128;47.530;8.584;2022-08-21T17:21:14;23.90;72.20
61255;DHT22;47128;47.530;8.584;2022-08-21T17:23:39;23.80;72.50
61255;DHT22;47128;47.530;8.584;2022-08-21T17:26:05;23.80;72.10
61255;DHT22;47128;47.530;8.584;2022-08-21T17:28:34;24.00;72.90